Portada
METAR-TAF:

METAR-TAF

Aeropuertos :

Niamey, Níger

Aeropuerto Internacional Diori Hamani

latitud: 13-29N, longitud: 002-10E, altitud: 223 m

Observación

El informe se hizo hace 59 minutos, a las 21:00 UTC
Viento 5 kt del oeste-suroeste
Temperatura 30°C
Humedad 59%
Presión 1013 hPa
Visibilidad: 8000 m
Escasas nubes a una altura de 3000 ft, Cumulonimbus.

METAR: DRRN 232100Z 25005KT 8000 FEW030CB 30/21 Q1013 NOSIG

Hora: 22:59 (21:59 UTC)

Pronóstico

El informe se hizo hace 4 horas y 59 minutos, a las 17:00 UTC
Pronóstico válido del 23 a las 18 UTC al 24 a las 24 UTC
Viento 8 kt del oeste-suroeste
Visibilidad 10 km o más
Escasas nubes a una altura de 2000 ft
Probabilidad 30% :
Temporalmente
del 24 a las 14 UTC al 24 a las 20 UTC
Escasas nubes a una altura de 4000 ft, Cumulonimbus.
tormenta

TAF: DRRN 231700Z 2318/2424 24008KT 9999 FEW020 PROB30 TEMPO 2414/2420 TS FEW040CB

Observaciones y pronósticos meteorológicos de más de 4000 aeropuertos (mensajes METAR y TAF).

Los puntos amarillos y rojos representan las estaciones disponibles.

Ponga el ratón en el punto deseado para ver el nombre de la estación.

Haga clic para ver las observaciones y los pronósticos meteorológicos.

Para cambiar el mapa : haga clic en los botones verdes con una cruz de color negro para hacer un zoom, en el botón verde con un guión para alejar o en las flechas verdes para mapas adyacentes.


METAR-TAF: